Time;durP1;ratioP1;P1;durP2;ratioP2;P2;SDS_P1;SDS_P2;PMS_P1;PMS_P2;Temp;Humidity;BMP_temperature;BMP_pressure;BME280_temperature;BME280_humidity;BME280_pressure;Samples;Min_cycle;Max_cycle;Signal;HPM_P1;HPM_P2
2021/05/31 00:00:19;;;;;;;;;;;19.70;64.20;;;;;;5033346;28;1143;-71
2021/05/31 00:02:45;;;;;;;;;;;19.70;64.20;;;;;;5033277;28;1119;-71
2021/05/31 00:05:10;;;;;;;;;;;19.70;64.20;;;;;;5033864;28;1898;-71
2021/05/31 00:07:36;;;;;;;;;;;19.70;64.20;;;;;;5034821;28;1268;-71
2021/05/31 00:10:01;;;;;;;;;;;19.70;64.20;;;;;;5034574;28;1103;-71
2021/05/31 00:12:27;;;;;;;;;;;19.70;64.20;;;;;;5033210;28;1080;-71
2021/05/31 00:14:52;;;;;;;;;;;19.70;64.30;;;;;;5025273;28;1024;-71
2021/05/31 00:17:17;;;;;;;;;;;19.70;64.30;;;;;;5027956;28;1286;-71
2021/05/31 00:19:43;;;;;;;;;;;19.70;64.30;;;;;;5034288;28;1115;-71
2021/05/31 00:22:08;;;;;;;;;;;19.70;64.30;;;;;;5022355;28;1131;-72
2021/05/31 00:24:34;;;;;;;;;;;19.70;64.30;;;;;;5032238;28;1902;-71
2021/05/31 00:26:59;;;;;;;;;;;19.70;64.30;;;;;;5032576;28;1271;-71
2021/05/31 00:29:25;;;;;;;;;;;19.70;64.30;;;;;;5034071;28;1064;-71
2021/05/31 00:31:50;;;;;;;;;;;19.70;64.30;;;;;;5032257;28;950;-71
2021/05/31 00:34:16;;;;;;;;;;;19.70;64.30;;;;;;5033402;28;1142;-71
2021/05/31 00:36:41;;;;;;;;;;;19.70;64.40;;;;;;5033786;28;1260;-71
2021/05/31 00:39:07;;;;;;;;;;;19.70;64.40;;;;;;5032646;28;1068;-72
2021/05/31 00:41:32;;;;;;;;;;;19.70;64.40;;;;;;5032898;28;1159;-71
2021/05/31 00:43:58;;;;;;;;;;;19.70;64.40;;;;;;5032693;28;1969;-71
2021/05/31 00:46:23;;;;;;;;;;;19.70;64.40;;;;;;5033506;28;1069;-71
2021/05/31 00:48:49;;;;;;;;;;;19.70;64.40;;;;;;5032296;28;1299;-71
2021/05/31 00:51:14;;;;;;;;;;;19.70;64.40;;;;;;5033588;28;1060;-72
2021/05/31 00:53:40;;;;;;;;;;;19.70;64.40;;;;;;5032829;28;1079;-71
2021/05/31 00:56:05;;;;;;;;;;;19.70;64.40;;;;;;5033716;28;1044;-71
2021/05/31 00:58:31;;;;;;;;;;;19.70;64.40;;;;;;5033192;28;1293;-71
2021/05/31 01:00:57;;;;;;;;;;;19.70;64.40;;;;;;5031844;28;1147;-71
2021/05/31 01:03:23;;;;;;;;;;;19.70;64.50;;;;;;5031648;28;1906;-71
2021/05/31 01:05:48;;;;;;;;;;;19.60;64.40;;;;;;5032305;28;1116;-71
2021/05/31 01:08:18;;;;;;;;;;;19.70;64.40;;;;;;5032323;28;1286;-71
2021/05/31 01:10:44;;;;;;;;;;;19.70;64.50;;;;;;5033690;28;1103;-71
2021/05/31 01:13:21;;;;;;;;;;;19.70;64.40;;;;;;5030934;28;1140;-71
2021/05/31 01:15:55;;;;;;;;;;;19.60;64.40;;;;;;5018591;28;1131;-71
2021/05/31 01:18:21;;;;;;;;;;;19.70;64.40;;;;;;5032893;28;1271;-71
2021/05/31 01:21:03;;;;;;;;;;;19.60;64.40;;;;;;5032256;28;1614;-71
2021/05/31 01:23:33;;;;;;;;;;;19.60;64.40;;;;;;5033159;28;1906;-72
2021/05/31 01:25:58;;;;;;;;;;;19.60;64.40;;;;;;5019535;28;1062;-71
2021/05/31 01:28:59;;;;;;;;;;;19.70;64.50;;;;;;5032229;28;1244;-71
2021/05/31 01:31:28;;;;;;;;;;;19.60;64.40;;;;;;4990629;28;1309;-71
2021/05/31 01:33:53;;;;;;;;;;;19.70;64.50;;;;;;5009194;28;1225;-71
2021/05/31 01:36:19;;;;;;;;;;;19.60;64.40;;;;;;5032833;28;1130;-71
2021/05/31 01:38:44;;;;;;;;;;;19.60;64.40;;;;;;5031400;28;1301;-71
2021/05/31 01:41:10;;;;;;;;;;;19.60;64.70;;;;;;5031763;28;1334;-71
2021/05/31 01:43:35;;;;;;;;;;;19.60;64.50;;;;;;5031138;28;1972;-71
2021/05/31 01:46:01;;;;;;;;;;;19.60;64.40;;;;;;5033213;28;1177;-71
2021/05/31 01:48:27;;;;;;;;;;;19.60;64.50;;;;;;5031296;28;1293;-71
2021/05/31 01:50:53;;;;;;;;;;;19.60;64.50;;;;;;5031235;28;1080;-71
2021/05/31 01:53:18;;;;;;;;;;;19.60;65.20;;;;;;5013657;28;1301;-71
2021/05/31 01:55:43;;;;;;;;;;;19.60;64.50;;;;;;5031724;28;1124;-71
2021/05/31 01:58:09;;;;;;;;;;;19.60;64.50;;;;;;5032074;28;1302;-71
2021/05/31 02:00:35;;;;;;;;;;;19.60;64.50;;;;;;5031304;28;820;-71
2021/05/31 02:03:01;;;;;;;;;;;19.60;64.50;;;;;;5031782;28;1961;-71
2021/05/31 02:05:26;;;;;;;;;;;19.60;64.50;;;;;;5030599;28;1171;-71
2021/05/31 02:07:52;;;;;;;;;;;19.60;64.50;;;;;;5032161;28;1269;-71
2021/05/31 02:10:17;;;;;;;;;;;19.60;64.50;;;;;;5032551;28;1134;-71
2021/05/31 02:12:44;;;;;;;;;;;19.60;64.50;;;;;;5031231;28;1264;-71
2021/05/31 02:15:11;;;;;;;;;;;19.60;64.60;;;;;;5031322;28;985;-71
2021/05/31 02:17:49;;;;;;;;;;;19.60;64.60;;;;;;5030400;28;1345;-71
2021/05/31 02:20:15;;;;;;;;;;;19.60;64.60;;;;;;5031053;28;1128;-71
2021/05/31 02:22:42;;;;;;;;;;;19.60;64.50;;;;;;5030766;28;1082;-71
2021/05/31 02:25:08;;;;;;;;;;;19.60;64.60;;;;;;5030452;28;1906;-71
2021/05/31 02:27:33;;;;;;;;;;;19.60;64.60;;;;;;5030290;28;1304;-71
2021/05/31 02:29:59;;;;;;;;;;;19.60;64.60;;;;;;5031027;28;1140;-71
2021/05/31 02:32:25;;;;;;;;;;;19.60;64.60;;;;;;5032251;28;1174;-71
2021/05/31 02:34:50;;;;;;;;;;;19.60;64.60;;;;;;5031371;28;1068;-71
2021/05/31 02:37:16;;;;;;;;;;;19.60;64.60;;;;;;5031047;28;1319;-71
2021/05/31 02:39:41;;;;;;;;;;;19.60;64.60;;;;;;5032618;28;1218;-71
2021/05/31 02:42:07;;;;;;;;;;;19.60;64.60;;;;;;5035458;28;2240;-71
2021/05/31 02:44:32;;;;;;;;;;;19.60;64.60;;;;;;5035222;28;1895;-71
2021/05/31 02:46:57;;;;;;;;;;;19.60;65.40;;;;;;5034650;28;1283;-71
2021/05/31 02:49:23;;;;;;;;;;;19.60;64.70;;;;;;5035792;28;1130;-71
2021/05/31 02:51:49;;;;;;;;;;;19.60;64.70;;;;;;5035751;28;1197;-71
2021/05/31 02:54:14;;;;;;;;;;;19.60;64.60;;;;;;5035134;28;1109;-71
2021/05/31 02:56:40;;;;;;;;;;;19.60;64.60;;;;;;5034886;28;1263;-71
2021/05/31 02:59:05;;;;;;;;;;;19.60;64.60;;;;;;5035741;28;1107;-72
2021/05/31 03:01:31;;;;;;;;;;;19.60;64.60;;;;;;5038452;28;1194;-71
2021/05/31 03:03:56;;;;;;;;;;;19.60;64.60;;;;;;5042954;28;1890;-71
2021/05/31 03:06:22;;;;;;;;;;;19.60;64.60;;;;;;5044363;28;1154;-71
2021/05/31 03:08:47;;;;;;;;;;;19.60;64.70;;;;;;5041735;28;1374;-72
2021/05/31 03:11:12;;;;;;;;;;;19.60;64.70;;;;;;5042733;28;1088;-72
2021/05/31 03:13:38;;;;;;;;;;;19.60;64.70;;;;;;5042475;28;1176;-73
2021/05/31 03:16:03;;;;;;;;;;;19.60;64.70;;;;;;5041463;28;1040;-72
2021/05/31 03:18:29;;;;;;;;;;;19.60;64.70;;;;;;5042298;28;1370;-72
2021/05/31 03:20:54;;;;;;;;;;;19.60;64.70;;;;;;5045497;28;1098;-73
2021/05/31 03:23:20;;;;;;;;;;;19.60;64.70;;;;;;5043163;28;1906;-71
2021/05/31 03:25:45;;;;;;;;;;;19.60;64.70;;;;;;5042800;28;1279;-73
2021/05/31 03:28:10;;;;;;;;;;;19.60;64.70;;;;;;5043912;28;1318;-72
2021/05/31 03:30:36;;;;;;;;;;;19.60;64.70;;;;;;5045224;28;1095;-73
2021/05/31 03:33:02;;;;;;;;;;;19.60;64.70;;;;;;5041732;28;1269;-72
2021/05/31 03:35:27;;;;;;;;;;;19.60;64.70;;;;;;5042005;28;1266;-71
2021/05/31 03:37:52;;;;;;;;;;;19.60;64.70;;;;;;5034506;28;1381;-71
2021/05/31 03:40:22;;;;;;;;;;;19.60;64.70;;;;;;5034816;28;1174;-71
2021/05/31 03:42:51;;;;;;;;;;;19.60;64.70;;;;;;5033819;28;1143;-72
2021/05/31 03:45:16;;;;;;;;;;;19.60;64.60;;;;;;5034716;28;1973;-73
2021/05/31 03:47:41;;;;;;;;;;;19.60;64.60;;;;;;5034495;28;1270;-73
2021/05/31 03:50:07;;;;;;;;;;;19.60;64.60;;;;;;5034417;28;1162;-72
2021/05/31 03:52:32;;;;;;;;;;;19.60;64.50;;;;;;5033521;28;1138;-73
2021/05/31 03:54:58;;;;;;;;;;;19.60;64.50;;;;;;5034373;28;1087;-73
2021/05/31 03:57:23;;;;;;;;;;;19.60;64.40;;;;;;5034327;28;1267;-73
2021/05/31 03:59:51;;;;;;;;;;;19.60;64.40;;;;;;5034874;28;1103;-73
2021/05/31 04:02:16;;;;;;;;;;;19.60;64.40;;;;;;5034072;28;1142;-73
2021/05/31 04:04:44;;;;;;;;;;;19.70;64.40;;;;;;5032967;28;1906;-73
2021/05/31 04:11:33;;;;;;;;;;;19.70;64.40;;;;;;5013539;28;1209;-73
2021/05/31 04:12:51;;;;;;;;;;;19.70;64.40;;;;;;5032782;28;1227;-72
2021/05/31 04:15:17;;;;;;;;;;;19.70;64.30;;;;;;5034267;28;1371;-73
2021/05/31 04:17:42;;;;;;;;;;;19.70;64.30;;;;;;5034084;28;1287;-73
2021/05/31 04:20:08;;;;;;;;;;;19.70;64.30;;;;;;5032832;28;1096;-72
2021/05/31 04:22:33;;;;;;;;;;;19.70;64.30;;;;;;5034372;28;1266;-71
2021/05/31 04:24:59;;;;;;;;;;;19.70;64.20;;;;;;5033143;28;1967;-71
2021/05/31 04:27:24;;;;;;;;;;;19.70;64.20;;;;;;5033967;28;1262;-71
2021/05/31 04:29:51;;;;;;;;;;;19.70;64.20;;;;;;5034127;28;1080;-71
2021/05/31 04:32:16;;;;;;;;;;;19.70;64.20;;;;;;5034314;28;1190;-71
2021/05/31 04:34:41;;;;;;;;;;;19.70;64.20;;;;;;5033659;28;1115;-71
2021/05/31 04:37:07;;;;;;;;;;;19.70;64.10;;;;;;5033432;28;1217;-71
2021/05/31 04:39:32;;;;;;;;;;;19.70;64.10;;;;;;5034510;28;1127;-71
2021/05/31 04:41:58;;;;;;;;;;;19.70;64.10;;;;;;5033340;28;1095;-71
2021/05/31 04:44:23;;;;;;;;;;;19.70;64.10;;;;;;5033415;28;1911;-71
2021/05/31 04:46:49;;;;;;;;;;;19.80;64.20;;;;;;5033558;28;1295;-72
2021/05/31 04:49:14;;;;;;;;;;;19.70;64.10;;;;;;5034645;28;1064;-72
2021/05/31 04:51:40;;;;;;;;;;;19.80;64.10;;;;;;5034056;28;1028;-72
2021/05/31 04:54:05;;;;;;;;;;;19.80;64.10;;;;;;5033516;28;891;-71
2021/05/31 04:56:30;;;;;;;;;;;19.80;64.10;;;;;;5033625;28;1131;-71
2021/05/31 04:58:56;;;;;;;;;;;19.80;64.10;;;;;;5032477;28;1467;-71
2021/05/31 05:01:21;;;;;;;;;;;19.80;64.10;;;;;;5033978;28;1094;-71
2021/05/31 05:03:47;;;;;;;;;;;19.80;64.10;;;;;;5032446;28;1965;-72
2021/05/31 05:06:12;;;;;;;;;;;19.80;64.10;;;;;;5034121;28;1123;-72
2021/05/31 05:08:38;;;;;;;;;;;19.80;64.10;;;;;;5033910;28;1286;-72
2021/05/31 05:11:03;;;;;;;;;;;19.80;64.10;;;;;;5032806;28;942;-72
2021/05/31 05:13:28;;;;;;;;;;;19.80;64.10;;;;;;5033697;28;1126;-71
2021/05/31 05:15:54;;;;;;;;;;;19.70;64.00;;;;;;5033861;28;1004;-72
2021/05/31 05:18:19;;;;;;;;;;;19.80;64.10;;;;;;5034256;28;1365;-72
2021/05/31 05:20:45;;;;;;;;;;;19.70;64.00;;;;;;5032995;28;1083;-72
2021/05/31 05:23:10;;;;;;;;;;;19.80;64.10;;;;;;5032611;28;1906;-72
2021/05/31 05:25:36;;;;;;;;;;;19.70;64.00;;;;;;5033052;28;1080;-72
2021/05/31 05:28:01;;;;;;;;;;;19.70;64.00;;;;;;5033439;28;1213;-71
2021/05/31 05:30:28;;;;;;;;;;;19.80;64.10;;;;;;5031800;28;1080;-73
2021/05/31 05:32:59;;;;;;;;;;;19.80;64.00;;;;;;5031792;28;1091;-73
2021/05/31 05:35:27;;;;;;;;;;;19.70;64.00;;;;;;5016306;28;1202;-73
2021/05/31 05:48:20;;;;;;;;;;;19.80;64.00;;;;;;5032540;28;1293;-70
2021/05/31 05:50:45;;;;;;;;;;;19.80;64.00;;;;;;5032712;28;1044;-70
2021/05/31 05:53:11;;;;;;;;;;;19.80;64.00;;;;;;5031906;28;1107;-70
2021/05/31 05:55:36;;;;;;;;;;;19.80;64.00;;;;;;5032405;28;1103;-70
2021/05/31 05:58:02;;;;;;;;;;;19.80;64.00;;;;;;5032264;28;1350;-70
2021/05/31 06:00:28;;;;;;;;;;;19.80;64.00;;;;;;5032765;28;1075;-70
2021/05/31 06:02:53;;;;;;;;;;;19.80;64.00;;;;;;5031982;28;1060;-70
2021/05/31 06:05:19;;;;;;;;;;;19.80;64.00;;;;;;5032003;28;1969;-70
2021/05/31 06:07:44;;;;;;;;;;;19.80;64.00;;;;;;5031183;28;1290;-71
2021/05/31 06:10:10;;;;;;;;;;;19.80;64.00;;;;;;5032580;28;890;-71
2021/05/31 06:12:35;;;;;;;;;;;19.80;64.00;;;;;;5033026;28;769;-71
2021/05/31 06:15:01;;;;;;;;;;;19.80;63.90;;;;;;5021093;28;1182;-71
2021/05/31 06:17:26;;;;;;;;;;;19.80;63.90;;;;;;5028854;28;1280;-70
2021/05/31 06:19:52;;;;;;;;;;;19.80;64.00;;;;;;5032109;28;1044;-72
2021/05/31 06:22:17;;;;;;;;;;;19.80;64.00;;;;;;5030865;28;1098;-72
2021/05/31 06:24:44;;;;;;;;;;;19.80;64.00;;;;;;5031615;28;1951;-72
2021/05/31 06:27:09;;;;;;;;;;;19.80;63.90;;;;;;5013984;28;1455;-71
2021/05/31 06:29:35;;;;;;;;;;;19.80;64.00;;;;;;5032010;28;1091;-71
2021/05/31 06:32:00;;;;;;;;;;;19.80;63.90;;;;;;5032062;28;952;-72
2021/05/31 06:34:25;;;;;;;;;;;19.80;63.90;;;;;;5031655;28;1111;-73
2021/05/31 06:36:55;;;;;;;;;;;19.80;63.90;;;;;;5031483;28;1311;-73
2021/05/31 06:39:23;;;;;;;;;;;19.80;63.90;;;;;;5030998;28;1154;-72
2021/05/31 06:41:49;;;;;;;;;;;19.80;63.90;;;;;;5032243;28;1022;-73
2021/05/31 06:44:14;;;;;;;;;;;19.80;64.10;;;;;;5029928;28;1902;-73
2021/05/31 06:46:40;;;;;;;;;;;19.80;64.10;;;;;;5031918;28;1306;-71
2021/05/31 06:49:05;;;;;;;;;;;19.80;64.00;;;;;;5030387;28;1092;-71
2021/05/31 06:51:32;;;;;;;;;;;19.80;64.00;;;;;;5030951;28;1285;-72
2021/05/31 06:53:57;;;;;;;;;;;19.80;64.00;;;;;;5031666;28;2167;-72
2021/05/31 06:56:23;;;;;;;;;;;19.80;64.00;;;;;;5041119;28;1047;-72
2021/05/31 06:58:49;;;;;;;;;;;19.80;64.00;;;;;;5039952;28;1331;-71
2021/05/31 07:01:14;;;;;;;;;;;19.80;64.00;;;;;;5031866;28;1095;-72
2021/05/31 07:03:40;;;;;;;;;;;19.80;64.00;;;;;;5031335;28;1961;-72
2021/05/31 07:06:05;;;;;;;;;;;19.80;64.00;;;;;;5031836;28;1064;-72
2021/05/31 07:08:31;;;;;;;;;;;19.80;64.00;;;;;;5031897;28;1283;-72
2021/05/31 07:10:58;;;;;;;;;;;19.80;64.00;;;;;;5030490;28;1262;-72
2021/05/31 07:13:24;;;;;;;;;;;19.80;64.00;;;;;;5030749;28;1095;-72
2021/05/31 07:15:50;;;;;;;;;;;19.80;64.00;;;;;;5031789;28;1153;-72
2021/05/31 07:18:16;;;;;;;;;;;19.80;63.90;;;;;;5030813;28;1264;-72
2021/05/31 07:20:41;;;;;;;;;;;19.80;64.00;;;;;;5032064;28;1178;-72
2021/05/31 07:23:08;;;;;;;;;;;19.80;64.00;;;;;;5029752;28;1080;-72
2021/05/31 07:25:33;;;;;;;;;;;19.80;64.00;;;;;;5032708;28;1891;-72
2021/05/31 07:27:59;;;;;;;;;;;19.80;63.90;;;;;;5034975;28;1217;-71
2021/05/31 07:30:25;;;;;;;;;;;19.80;64.00;;;;;;5035616;28;1151;-72
2021/05/31 07:32:50;;;;;;;;;;;19.80;64.00;;;;;;5033154;28;1086;-72
2021/05/31 07:35:16;;;;;;;;;;;19.80;63.90;;;;;;5035181;28;1076;-72
2021/05/31 07:37:41;;;;;;;;;;;19.80;63.90;;;;;;5034944;28;1293;-72
2021/05/31 07:40:08;;;;;;;;;;;19.80;63.90;;;;;;5016601;28;1351;-71
2021/05/31 07:42:33;;;;;;;;;;;19.80;64.00;;;;;;5033880;28;1088;-72
2021/05/31 07:44:58;;;;;;;;;;;19.80;64.00;;;;;;5033201;28;1914;-72
2021/05/31 07:47:24;;;;;;;;;;;19.80;64.00;;;;;;5034763;28;1449;-72
2021/05/31 07:49:49;;;;;;;;;;;19.80;64.00;;;;;;5034887;28;1079;-72
2021/05/31 07:52:24;;;;;;;;;;;19.80;64.00;;;;;;5034727;28;1138;-72
2021/05/31 07:54:49;;;;;;;;;;;19.80;64.00;;;;;;5034184;28;1067;-72
2021/05/31 07:57:15;;;;;;;;;;;19.80;64.00;;;;;;5033947;28;1259;-72
2021/05/31 07:59:40;;;;;;;;;;;19.80;64.00;;;;;;5032966;28;996;-72
2021/05/31 08:02:06;;;;;;;;;;;19.80;64.00;;;;;;5034726;28;1044;-72
2021/05/31 08:04:32;;;;;;;;;;;19.70;64.00;;;;;;5016112;28;1902;-72
2021/05/31 08:06:59;;;;;;;;;;;19.80;64.10;;;;;;5040746;28;1289;-72
2021/05/31 08:09:25;;;;;;;;;;;19.80;64.10;;;;;;5039097;28;1165;-72
2021/05/31 08:11:50;;;;;;;;;;;19.80;64.10;;;;;;5033252;28;1159;-72
2021/05/31 08:14:16;;;;;;;;;;;19.80;64.10;;;;;;5033932;28;1127;-73
2021/05/31 08:16:41;;;;;;;;;;;19.80;64.10;;;;;;5035150;28;1323;-73
2021/05/31 08:19:07;;;;;;;;;;;19.80;64.10;;;;;;5035111;28;1270;-73
2021/05/31 08:21:32;;;;;;;;;;;19.70;64.10;;;;;;5034518;28;1419;-72
2021/05/31 08:23:57;;;;;;;;;;;19.80;64.20;;;;;;5033089;28;1965;-71
2021/05/31 08:26:23;;;;;;;;;;;19.80;64.10;;;;;;5035719;28;773;-71
2021/05/31 08:28:48;;;;;;;;;;;19.70;64.10;;;;;;5034675;28;1683;-71
2021/05/31 08:31:14;;;;;;;;;;;19.70;64.10;;;;;;5035161;28;1601;-71
2021/05/31 08:33:39;;;;;;;;;;;19.80;64.20;;;;;;5034555;28;1615;-71
2021/05/31 08:36:05;;;;;;;;;;;19.80;64.20;;;;;;5034708;28;1413;-71
2021/05/31 08:38:32;;;;;;;;;;;19.80;64.20;;;;;;5032483;28;1363;-72
2021/05/31 08:40:57;;;;;;;;;;;19.80;64.20;;;;;;5034944;28;1674;-71
2021/05/31 08:43:23;;;;;;;;;;;19.70;64.10;;;;;;5034573;28;1905;-71
2021/05/31 08:45:48;;;;;;;;;;;19.70;64.20;;;;;;5034439;28;1186;-73
2021/05/31 08:48:14;;;;;;;;;;;19.80;64.30;;;;;;5034892;28;1271;-71
2021/05/31 08:50:39;;;;;;;;;;;19.80;64.30;;;;;;5034017;28;1385;-73
2021/05/31 08:53:05;;;;;;;;;;;19.80;65.00;;;;;;5033174;28;1619;-73
2021/05/31 08:55:30;;;;;;;;;;;19.70;64.20;;;;;;5034330;28;1059;-73
2021/05/31 08:57:56;;;;;;;;;;;19.80;64.30;;;;;;5032730;28;1378;-73
2021/05/31 09:00:24;;;;;;;;;;;19.70;64.20;;;;;;5033614;28;1074;-75
2021/05/31 09:02:49;;;;;;;;;;;19.70;64.20;;;;;;5032092;28;1564;-71
2021/05/31 09:05:15;;;;;;;;;;;19.70;64.30;;;;;;5032553;28;1946;-72
2021/05/31 09:07:40;;;;;;;;;;;19.70;64.30;;;;;;5014605;28;1505;-72
2021/05/31 09:10:06;;;;;;;;;;;19.70;64.30;;;;;;5032598;28;1423;-73
2021/05/31 09:12:35;;;;;;;;;;;19.70;64.30;;;;;;5032082;28;1068;-73
2021/05/31 09:15:01;;;;;;;;;;;19.70;64.30;;;;;;5032414;28;1209;-73
2021/05/31 09:17:31;;;;;;;;;;;19.70;64.30;;;;;;5031550;28;1339;-73
2021/05/31 09:19:56;;;;;;;;;;;19.70;64.30;;;;;;5033587;28;1040;-72
2021/05/31 09:22:21;;;;;;;;;;;19.70;64.30;;;;;;5032923;28;1155;-72
2021/05/31 09:24:56;;;;;;;;;;;19.70;64.30;;;;;;5031341;28;1973;-72
2021/05/31 09:27:22;;;;;;;;;;;19.70;64.30;;;;;;5032608;28;1334;-71
2021/05/31 09:30:14;;;;;;;;;;;19.70;64.30;;;;;;5040501;28;1286;-71
2021/05/31 09:32:48;;;;;;;;;;;19.70;64.30;;;;;;5038985;28;1282;-72
2021/05/31 09:35:13;;;;;;;;;;;19.70;64.40;;;;;;5040134;28;1258;-71
2021/05/31 09:37:45;;;;;;;;;;;19.70;64.30;;;;;;5039000;28;1324;-72
2021/05/31 09:40:11;;;;;;;;;;;19.70;64.10;;;;;;5037014;28;1199;-72
2021/05/31 09:42:36;;;;;;;;;;;19.70;65.40;;;;;;5032227;28;1586;-70
2021/05/31 09:45:09;;;;;;;;;;;19.70;66.10;;;;;;5035759;28;1894;-70
2021/05/31 09:47:37;;;;;;;;;;;19.80;64.50;;;;;;5040014;28;1379;-72
2021/05/31 09:50:03;;;;;;;;;;;19.80;63.40;;;;;;5038194;28;1168;-69
2021/05/31 09:52:29;;;;;;;;;;;19.80;61.60;;;;;;5032371;28;1270;-68
2021/05/31 09:54:54;;;;;;;;;;;19.70;58.90;;;;;;5028734;28;1183;-70
2021/05/31 09:57:20;;;;;;;;;;;19.80;55.80;;;;;;5030592;28;1271;-74
2021/05/31 09:59:47;;;;;;;;;;;19.80;56.60;;;;;;5031221;28;976;-70
2021/05/31 10:02:16;;;;;;;;;;;19.80;54.10;;;;;;5030924;28;1112;-69
2021/05/31 10:04:56;;;;;;;;;;;19.80;56.10;;;;;;5029500;28;1960;-69
2021/05/31 10:09:47;;;;;;;;;;;19.80;58.90;;;;;;5031633;28;1080;-74
2021/05/31 10:12:12;;;;;;;;;;;19.80;57.50;;;;;;5030281;28;980;-73
2021/05/31 10:14:39;;;;;;;;;;;19.80;58.50;;;;;;5028669;28;1909;-74
2021/05/31 10:17:04;;;;;;;;;;;19.80;58.10;;;;;;5038220;28;2359;-74
2021/05/31 10:19:30;;;;;;;;;;;19.80;56.60;;;;;;5037582;28;1119;-74
2021/05/31 10:21:56;;;;;;;;;;;19.80;57.80;;;;;;5031983;28;1080;-74
2021/05/31 10:24:21;;;;;;;;;;;19.80;57.30;;;;;;5029587;28;1938;-73
2021/05/31 10:26:46;;;;;;;;;;;19.80;55.40;;;;;;5025708;28;1329;-73
2021/05/31 10:29:12;;;;;;;;;;;19.90;54.20;;;;;;5030655;28;1061;-73
2021/05/31 10:31:41;;;;;;;;;;;19.90;56.90;;;;;;5033127;28;1876;-73
2021/05/31 10:34:15;;;;;;;;;;;19.90;55.50;;;;;;5042978;28;1383;-73
2021/05/31 10:36:41;;;;;;;;;;;19.90;57.60;;;;;;5037641;28;1323;-73
2021/05/31 10:39:06;;;;;;;;;;;19.90;55.20;;;;;;5030736;28;1171;-72
2021/05/31 10:41:32;;;;;;;;;;;19.90;54.50;;;;;;5031948;28;1048;-72
2021/05/31 10:43:58;;;;;;;;;;;19.90;51.30;;;;;;5029850;28;1906;-72
2021/05/31 10:46:33;;;;;;;;;;;19.90;48.80;;;;;;5039373;28;1305;-72
2021/05/31 10:48:58;;;;;;;;;;;19.90;50.30;;;;;;5040673;28;1322;-74
2021/05/31 10:51:28;;;;;;;;;;;19.90;53.90;;;;;;5037048;28;1063;-72
2021/05/31 10:53:54;;;;;;;;;;;20.00;54.50;;;;;;5030109;28;1103;-72
2021/05/31 10:56:24;;;;;;;;;;;19.90;54.20;;;;;;5030567;28;1080;-73
2021/05/31 10:58:52;;;;;;;;;;;19.90;53.90;;;;;;5027156;28;1307;-73
2021/05/31 11:01:18;;;;;;;;;;;19.90;56.20;;;;;;5027509;28;792;-72
2021/05/31 11:03:49;;;;;;;;;;;19.90;55.40;;;;;;5034078;28;1968;-73
2021/05/31 11:06:16;;;;;;;;;;;19.90;51.00;;;;;;5035825;28;1416;-72
2021/05/31 11:08:54;;;;;;;;;;;19.90;56.30;;;;;;5034005;28;1688;-72
2021/05/31 11:11:30;;;;;;;;;;;19.90;54.60;;;;;;5034855;28;1079;-73
2021/05/31 11:13:56;;;;;;;;;;;19.90;53.80;;;;;;5034033;28;1453;-74
2021/05/31 11:16:21;;;;;;;;;;;19.90;52.80;;;;;;5022845;28;1365;-72
2021/05/31 11:18:47;;;;;;;;;;;20.00;55.70;;;;;;5035406;28;1206;-72
2021/05/31 11:21:34;;;;;;;;;;;19.90;54.80;;;;;;5035693;28;1165;-72
2021/05/31 11:24:03;;;;;;;;;;;19.90;57.30;;;;;;5033186;28;1899;-72
2021/05/31 11:26:30;;;;;;;;;;;19.90;57.80;;;;;;5033810;28;1460;-72
2021/05/31 11:28:55;;;;;;;;;;;19.90;56.30;;;;;;5035100;28;1345;-72
2021/05/31 11:31:21;;;;;;;;;;;19.90;56.80;;;;;;5034188;28;1173;-72
2021/05/31 11:33:48;;;;;;;;;;;19.90;56.90;;;;;;5034183;28;1036;-73
2021/05/31 11:36:13;;;;;;;;;;;19.90;55.20;;;;;;5034783;28;1427;-72
2021/05/31 11:38:39;;;;;;;;;;;19.90;55.10;;;;;;5032489;28;1449;-72
2021/05/31 11:41:07;;;;;;;;;;;19.90;50.80;;;;;;5035130;28;1242;-73
2021/05/31 11:43:32;;;;;;;;;;;20.00;56.40;;;;;;5028025;28;1976;-72
2021/05/31 11:45:58;;;;;;;;;;;20.00;55.90;;;;;;5033919;28;1094;-72
2021/05/31 11:48:23;;;;;;;;;;;19.90;50.50;;;;;;5023032;28;1426;-74
2021/05/31 11:50:49;;;;;;;;;;;20.00;55.00;;;;;;5021312;28;1444;-73
2021/05/31 11:53:16;;;;;;;;;;;19.90;53.50;;;;;;5022564;28;1750;-72
2021/05/31 11:55:41;;;;;;;;;;;19.90;51.00;;;;;;5041855;28;1154;-70
2021/05/31 11:58:07;;;;;;;;;;;19.90;51.10;;;;;;5034652;28;1271;-70
2021/05/31 12:00:33;;;;;;;;;;;20.00;56.30;;;;;;5030648;28;1135;-71
2021/05/31 12:02:59;;;;;;;;;;;19.90;55.70;;;;;;5043390;28;1076;-71
2021/05/31 12:05:30;;;;;;;;;;;20.00;55.00;;;;;;5046502;28;1955;-71
2021/05/31 12:08:00;;;;;;;;;;;20.00;55.70;;;;;;5046067;28;1271;-72
2021/05/31 12:10:26;;;;;;;;;;;19.90;55.20;;;;;;5026006;28;1097;-71
2021/05/31 12:12:51;;;;;;;;;;;19.90;55.40;;;;;;5032291;28;1830;-71
2021/05/31 12:15:17;;;;;;;;;;;19.90;55.60;;;;;;5040553;28;972;-73
2021/05/31 12:17:43;;;;;;;;;;;20.00;55.40;;;;;;5047637;28;1260;-74
2021/05/31 12:20:08;;;;;;;;;;;20.00;54.80;;;;;;5042058;28;1070;-72
2021/05/31 12:22:37;;;;;;;;;;;20.00;52.00;;;;;;5032535;28;940;-73
2021/05/31 12:25:02;;;;;;;;;;;20.00;55.70;;;;;;5032713;28;1890;-74
2021/05/31 12:27:28;;;;;;;;;;;20.00;55.80;;;;;;5024494;28;1404;-73
2021/05/31 12:29:54;;;;;;;;;;;20.00;54.80;;;;;;5040255;28;1166;-74
2021/05/31 12:32:20;;;;;;;;;;;20.00;54.90;;;;;;5032825;28;1151;-74
2021/05/31 12:34:46;;;;;;;;;;;20.00;52.20;;;;;;5032235;28;1053;-73
2021/05/31 12:37:12;;;;;;;;;;;20.00;52.20;;;;;;5032075;28;1256;-73
2021/05/31 12:39:42;;;;;;;;;;;20.00;46.90;;;;;;5013149;28;1190;-73
2021/05/31 12:42:07;;;;;;;;;;;19.90;45.40;;;;;;4997056;28;1427;-73
2021/05/31 12:44:33;;;;;;;;;;;20.00;43.00;;;;;;5023737;28;1960;-73
2021/05/31 12:47:04;;;;;;;;;;;20.00;42.20;;;;;;5039390;28;1270;-75
2021/05/31 12:49:29;;;;;;;;;;;20.00;42.80;;;;;;5036501;28;1207;-74
2021/05/31 12:51:55;;;;;;;;;;;20.00;42.80;;;;;;5041889;28;967;-74
2021/05/31 12:54:21;;;;;;;;;;;20.00;43.00;;;;;;5037023;28;1282;-74
2021/05/31 12:56:46;;;;;;;;;;;20.00;44.10;;;;;;5035890;28;1251;-72
2021/05/31 12:59:12;;;;;;;;;;;20.10;47.20;;;;;;5043677;28;1094;-72
2021/05/31 13:01:38;;;;;;;;;;;20.00;48.90;;;;;;5033662;28;969;-71
2021/05/31 13:04:03;;;;;;;;;;;20.00;48.90;;;;;;5029570;28;1898;-73
2021/05/31 13:06:33;;;;;;;;;;;20.00;47.40;;;;;;5040610;28;1190;-74
2021/05/31 13:08:58;;;;;;;;;;;20.00;47.30;;;;;;5027629;28;1274;-74
2021/05/31 13:11:23;;;;;;;;;;;20.00;45.40;;;;;;5033765;28;1083;-74
2021/05/31 13:13:49;;;;;;;;;;;20.00;48.30;;;;;;5033549;28;1024;-74
2021/05/31 13:16:14;;;;;;;;;;;20.00;48.40;;;;;;5020052;28;1066;-74
2021/05/31 13:18:42;;;;;;;;;;;19.90;48.20;;;;;;5032374;28;1365;-74
2021/05/31 13:21:18;;;;;;;;;;;20.00;48.70;;;;;;5033529;28;1098;-74
2021/05/31 13:23:45;;;;;;;;;;;20.00;48.80;;;;;;5030545;28;1898;-74
2021/05/31 13:26:11;;;;;;;;;;;20.00;44.80;;;;;;5033298;28;1135;-73
2021/05/31 13:28:38;;;;;;;;;;;20.00;42.40;;;;;;5035729;28;1272;-73
2021/05/31 13:31:03;;;;;;;;;;;20.00;44.20;;;;;;5031630;28;1112;-72
2021/05/31 13:33:32;;;;;;;;;;;20.00;45.40;;;;;;5031162;28;1064;-73
2021/05/31 13:35:58;;;;;;;;;;;20.00;44.80;;;;;;5032955;28;1134;-74
2021/05/31 13:38:27;;;;;;;;;;;20.00;42.80;;;;;;5032241;28;1295;-74
2021/05/31 13:40:52;;;;;;;;;;;20.00;41.00;;;;;;5032767;28;1079;-73
2021/05/31 13:43:18;;;;;;;;;;;20.00;39.50;;;;;;5032132;28;1154;-72
2021/05/31 13:45:45;;;;;;;;;;;20.10;39.50;;;;;;5031611;28;1910;-74
2021/05/31 13:48:11;;;;;;;;;;;20.10;40.40;;;;;;5031238;28;1297;-74
2021/05/31 13:50:36;;;;;;;;;;;20.10;42.30;;;;;;5027806;28;949;-74
2021/05/31 13:53:02;;;;;;;;;;;20.10;43.00;;;;;;5028568;28;1064;-75
2021/05/31 13:55:28;;;;;;;;;;;20.10;41.70;;;;;;5031939;28;1107;-75
2021/05/31 13:57:53;;;;;;;;;;;20.20;41.10;;;;;;5029770;28;1361;-75
2021/05/31 14:00:20;;;;;;;;;;;20.20;42.60;;;;;;5031124;28;1091;-74
2021/05/31 14:02:46;;;;;;;;;;;20.10;46.70;;;;;;5030240;28;1123;-75
2021/05/31 14:05:12;;;;;;;;;;;20.10;47.40;;;;;;5031016;28;1910;-75
2021/05/31 14:07:38;;;;;;;;;;;20.10;48.20;;;;;;5030605;28;1367;-74
2021/05/31 14:10:04;;;;;;;;;;;20.00;48.60;;;;;;5031923;28;1075;-75
2021/05/31 14:12:29;;;;;;;;;;;20.10;48.60;;;;;;5031371;28;1572;-70
2021/05/31 14:14:55;;;;;;;;;;;20.00;48.10;;;;;;5030638;28;1294;-69
2021/05/31 14:17:20;;;;;;;;;;;20.00;47.40;;;;;;5034690;28;1375;-70
2021/05/31 14:19:45;;;;;;;;;;;20.00;47.90;;;;;;5030638;28;1127;-70
2021/05/31 14:22:11;;;;;;;;;;;20.00;48.70;;;;;;5030065;28;1006;-69
2021/05/31 14:24:37;;;;;;;;;;;20.00;49.40;;;;;;5031272;28;1969;-71
2021/05/31 14:27:05;;;;;;;;;;;19.90;49.20;;;;;;5030741;28;1284;-69
2021/05/31 14:29:30;;;;;;;;;;;19.90;49.40;;;;;;5030978;28;1149;-70
2021/05/31 14:31:56;;;;;;;;;;;19.90;48.70;;;;;;5031160;28;1064;-71
2021/05/31 14:34:21;;;;;;;;;;;19.90;47.90;;;;;;5030404;28;1204;-67
2021/05/31 14:36:46;;;;;;;;;;;19.90;47.70;;;;;;5036180;28;1691;-67
2021/05/31 14:39:12;;;;;;;;;;;19.90;48.30;;;;;;5033685;28;1228;-68
2021/05/31 14:41:38;;;;;;;;;;;19.90;48.00;;;;;;5045938;28;1288;-69